sensor_id;sensor_type;location;lat;lon;timestamp;P1;durP1;ratioP1;P2;durP2;ratioP2
3101;SDS011;1561;42.666;23.392;2022-08-19T00:00:57;8.75;;;7.97;;
3101;SDS011;1561;42.666;23.392;2022-08-19T00:03:28;10.43;;;9.52;;
3101;SDS011;1561;42.666;23.392;2022-08-19T00:05:55;8.10;;;7.60;;
3101;SDS011;1561;42.666;23.392;2022-08-19T00:08:23;9.88;;;9.00;;
3101;SDS011;1561;42.666;23.392;2022-08-19T00:10:51;9.80;;;8.82;;
3101;SDS011;1561;42.666;23.392;2022-08-19T00:13:18;9.27;;;8.48;;
3101;SDS011;1561;42.666;23.392;2022-08-19T00:15:45;8.38;;;7.75;;
3101;SDS011;1561;42.666;23.392;2022-08-19T00:18:14;9.50;;;8.70;;
3101;SDS011;1561;42.666;23.392;2022-08-19T00:20:41;9.15;;;8.48;;
3101;SDS011;1561;42.666;23.392;2022-08-19T00:23:11;9.73;;;8.93;;
3101;SDS011;1561;42.666;23.392;2022-08-19T00:25:40;9.65;;;8.75;;
3101;SDS011;1561;42.666;23.392;2022-08-19T00:28:11;9.70;;;8.75;;
3101;SDS011;1561;42.666;23.392;2022-08-19T00:30:41;9.25;;;8.55;;
3101;SDS011;1561;42.666;23.392;2022-08-19T00:33:14;9.68;;;8.93;;
3101;SDS011;1561;42.666;23.392;2022-08-19T00:35:51;9.25;;;8.32;;
3101;SDS011;1561;42.666;23.392;2022-08-19T00:38:19;9.35;;;8.65;;
3101;SDS011;1561;42.666;23.392;2022-08-19T00:40:48;8.55;;;7.85;;
3101;SDS011;1561;42.666;23.392;2022-08-19T00:43:22;9.80;;;9.00;;
3101;SDS011;1561;42.666;23.392;2022-08-19T00:45:50;9.95;;;9.15;;
3101;SDS011;1561;42.666;23.392;2022-08-19T00:48:21;9.48;;;8.57;;
3101;SDS011;1561;42.666;23.392;2022-08-19T00:50:53;9.40;;;8.70;;
3101;SDS011;1561;42.666;23.392;2022-08-19T00:53:23;9.30;;;8.50;;
3101;SDS011;1561;42.666;23.392;2022-08-19T00:55:53;9.90;;;9.20;;
3101;SDS011;1561;42.666;23.392;2022-08-19T00:58:24;10.00;;;9.10;;
3101;SDS011;1561;42.666;23.392;2022-08-19T01:00:54;9.45;;;8.65;;
3101;SDS011;1561;42.666;23.392;2022-08-19T01:03:23;11.93;;;8.70;;
3101;SDS011;1561;42.666;23.392;2022-08-19T01:06:05;9.70;;;9.00;;
3101;SDS011;1561;42.666;23.392;2022-08-19T01:08:39;10.13;;;9.32;;
3101;SDS011;1561;42.666;23.392;2022-08-19T01:11:09;9.52;;;8.82;;
3101;SDS011;1561;42.666;23.392;2022-08-19T01:13:36;9.20;;;8.50;;
3101;SDS011;1561;42.666;23.392;2022-08-19T01:16:06;10.00;;;9.20;;
3101;SDS011;1561;42.666;23.392;2022-08-19T01:18:42;10.13;;;9.32;;
3101;SDS011;1561;42.666;23.392;2022-08-19T01:21:18;10.57;;;9.68;;
3101;SDS011;1561;42.666;23.392;2022-08-19T01:24:04;10.20;;;9.40;;
3101;SDS011;1561;42.666;23.392;2022-08-19T01:26:37;10.80;;;9.90;;
3101;SDS011;1561;42.666;23.392;2022-08-19T01:29:07;10.18;;;9.27;;
3101;SDS011;1561;42.666;23.392;2022-08-19T01:31:49;10.50;;;9.60;;
3101;SDS011;1561;42.666;23.392;2022-08-19T01:34:19;10.60;;;9.73;;
3101;SDS011;1561;42.666;23.392;2022-08-19T01:36:47;10.70;;;9.70;;
3101;SDS011;1561;42.666;23.392;2022-08-19T01:39:25;10.65;;;9.65;;
3101;SDS011;1561;42.666;23.392;2022-08-19T01:41:56;10.73;;;9.73;;
3101;SDS011;1561;42.666;23.392;2022-08-19T01:44:28;10.70;;;9.80;;
3101;SDS011;1561;42.666;23.392;2022-08-19T01:46:58;10.93;;;10.13;;
3101;SDS011;1561;42.666;23.392;2022-08-19T01:49:39;10.70;;;9.70;;
3101;SDS011;1561;42.666;23.392;2022-08-19T01:52:06;11.57;;;10.60;;
3101;SDS011;1561;42.666;23.392;2022-08-19T01:54:40;10.43;;;9.45;;
3101;SDS011;1561;42.666;23.392;2022-08-19T01:57:09;12.18;;;10.77;;
3101;SDS011;1561;42.666;23.392;2022-08-19T01:59:41;10.18;;;9.38;;
3101;SDS011;1561;42.666;23.392;2022-08-19T02:02:12;10.70;;;9.75;;
3101;SDS011;1561;42.666;23.392;2022-08-19T02:04:40;11.50;;;10.40;;
3101;SDS011;1561;42.666;23.392;2022-08-19T02:07:08;10.20;;;9.40;;
3101;SDS011;1561;42.666;23.392;2022-08-19T02:09:39;10.55;;;9.55;;
3101;SDS011;1561;42.666;23.392;2022-08-19T02:12:06;11.05;;;10.10;;
3101;SDS011;1561;42.666;23.392;2022-08-19T02:14:35;11.50;;;9.55;;
3101;SDS011;1561;42.666;23.392;2022-08-19T02:17:03;9.93;;;9.05;;
3101;SDS011;1561;42.666;23.392;2022-08-19T02:19:31;11.88;;;10.82;;
3101;SDS011;1561;42.666;23.392;2022-08-19T02:21:59;10.25;;;9.45;;
3101;SDS011;1561;42.666;23.392;2022-08-19T02:24:27;10.32;;;9.43;;
3101;SDS011;1561;42.666;23.392;2022-08-19T02:26:58;10.57;;;9.63;;
3101;SDS011;1561;42.666;23.392;2022-08-19T02:29:31;10.73;;;9.93;;
3101;SDS011;1561;42.666;23.392;2022-08-19T02:31:58;10.38;;;9.23;;
3101;SDS011;1561;42.666;23.392;2022-08-19T02:34:26;10.77;;;9.98;;
3101;SDS011;1561;42.666;23.392;2022-08-19T02:36:53;11.40;;;10.45;;
3101;SDS011;1561;42.666;23.392;2022-08-19T02:39:22;11.55;;;10.55;;
3101;SDS011;1561;42.666;23.392;2022-08-19T02:41:48;11.18;;;10.27;;
3101;SDS011;1561;42.666;23.392;2022-08-19T02:44:19;11.25;;;10.15;;
3101;SDS011;1561;42.666;23.392;2022-08-19T02:46:48;10.75;;;9.82;;
3101;SDS011;1561;42.666;23.392;2022-08-19T02:49:23;11.10;;;10.20;;
3101;SDS011;1561;42.666;23.392;2022-08-19T02:51:50;11.55;;;10.55;;
3101;SDS011;1561;42.666;23.392;2022-08-19T02:54:19;11.13;;;10.23;;
3101;SDS011;1561;42.666;23.392;2022-08-19T02:56:46;12.18;;;10.98;;
3101;SDS011;1561;42.666;23.392;2022-08-19T02:59:14;12.00;;;11.02;;
3101;SDS011;1561;42.666;23.392;2022-08-19T03:01:47;11.93;;;10.93;;
3101;SDS011;1561;42.666;23.392;2022-08-19T03:04:25;10.57;;;9.68;;
3101;SDS011;1561;42.666;23.392;2022-08-19T03:07:09;10.95;;;9.90;;
3101;SDS011;1561;42.666;23.392;2022-08-19T03:09:42;11.82;;;10.82;;
3101;SDS011;1561;42.666;23.392;2022-08-19T03:12:10;12.10;;;11.00;;
3101;SDS011;1561;42.666;23.392;2022-08-19T03:14:38;10.57;;;9.73;;
3101;SDS011;1561;42.666;23.392;2022-08-19T03:17:07;9.82;;;9.02;;
3101;SDS011;1561;42.666;23.392;2022-08-19T03:19:41;11.07;;;10.18;;
3101;SDS011;1561;42.666;23.392;2022-08-19T03:22:11;11.85;;;10.75;;
3101;SDS011;1561;42.666;23.392;2022-08-19T03:24:46;10.95;;;10.15;;
3101;SDS011;1561;42.666;23.392;2022-08-19T03:27:13;11.50;;;10.38;;
3101;SDS011;1561;42.666;23.392;2022-08-19T03:29:44;12.63;;;11.02;;
3101;SDS011;1561;42.666;23.392;2022-08-19T03:32:15;11.13;;;10.05;;
3101;SDS011;1561;42.666;23.392;2022-08-19T03:34:43;11.80;;;10.70;;
3101;SDS011;1561;42.666;23.392;2022-08-19T03:37:14;18.75;;;11.63;;
3101;SDS011;1561;42.666;23.392;2022-08-19T03:39:41;12.77;;;11.68;;
3101;SDS011;1561;42.666;23.392;2022-08-19T03:42:13;12.43;;;11.32;;
3101;SDS011;1561;42.666;23.392;2022-08-19T03:45:00;12.07;;;11.07;;
3101;SDS011;1561;42.666;23.392;2022-08-19T03:47:30;11.90;;;10.93;;
3101;SDS011;1561;42.666;23.392;2022-08-19T03:49:56;11.57;;;10.45;;
3101;SDS011;1561;42.666;23.392;2022-08-19T03:52:28;12.90;;;10.25;;
3101;SDS011;1561;42.666;23.392;2022-08-19T03:54:56;11.75;;;10.65;;
3101;SDS011;1561;42.666;23.392;2022-08-19T03:57:25;11.57;;;10.40;;
3101;SDS011;1561;42.666;23.392;2022-08-19T04:00:00;11.57;;;10.57;;
3101;SDS011;1561;42.666;23.392;2022-08-19T04:02:33;10.65;;;9.65;;
3101;SDS011;1561;42.666;23.392;2022-08-19T04:05:00;11.55;;;10.10;;
3101;SDS011;1561;42.666;23.392;2022-08-19T04:07:29;11.63;;;10.63;;
3101;SDS011;1561;42.666;23.392;2022-08-19T04:09:56;11.07;;;10.18;;
3101;SDS011;1561;42.666;23.392;2022-08-19T04:12:25;11.45;;;10.27;;
3101;SDS011;1561;42.666;23.392;2022-08-19T04:14:53;10.85;;;9.75;;
3101;SDS011;1561;42.666;23.392;2022-08-19T04:17:37;11.40;;;10.40;;
3101;SDS011;1561;42.666;23.392;2022-08-19T04:20:09;11.82;;;10.60;;
3101;SDS011;1561;42.666;23.392;2022-08-19T04:22:42;11.65;;;10.60;;
3101;SDS011;1561;42.666;23.392;2022-08-19T04:25:13;13.82;;;10.48;;
3101;SDS011;1561;42.666;23.392;2022-08-19T04:27:41;9.73;;;8.85;;
3101;SDS011;1561;42.666;23.392;2022-08-19T04:30:12;11.15;;;10.07;;
3101;SDS011;1561;42.666;23.392;2022-08-19T04:32:41;11.43;;;10.45;;
3101;SDS011;1561;42.666;23.392;2022-08-19T04:35:13;11.88;;;10.88;;
3101;SDS011;1561;42.666;23.392;2022-08-19T04:37:43;10.90;;;9.90;;
3101;SDS011;1561;42.666;23.392;2022-08-19T04:40:10;12.77;;;11.57;;
3101;SDS011;1561;42.666;23.392;2022-08-19T04:42:56;11.18;;;10.07;;
3101;SDS011;1561;42.666;23.392;2022-08-19T04:45:23;13.15;;;11.35;;
3101;SDS011;1561;42.666;23.392;2022-08-19T04:47:55;11.95;;;10.85;;
3101;SDS011;1561;42.666;23.392;2022-08-19T04:50:24;11.30;;;10.38;;
3101;SDS011;1561;42.666;23.392;2022-08-19T04:52:51;14.07;;;11.00;;
3101;SDS011;1561;42.666;23.392;2022-08-19T04:55:33;14.30;;;12.05;;
3101;SDS011;1561;42.666;23.392;2022-08-19T04:58:06;12.27;;;11.18;;
3101;SDS011;1561;42.666;23.392;2022-08-19T05:00:39;13.10;;;11.93;;
3101;SDS011;1561;42.666;23.392;2022-08-19T05:03:19;12.50;;;11.15;;
3101;SDS011;1561;42.666;23.392;2022-08-19T05:05:49;14.38;;;11.40;;
3101;SDS011;1561;42.666;23.392;2022-08-19T05:08:20;12.88;;;11.68;;
3101;SDS011;1561;42.666;23.392;2022-08-19T05:10:55;28.27;;;20.38;;
3101;SDS011;1561;42.666;23.392;2022-08-19T05:13:24;18.25;;;11.25;;
3101;SDS011;1561;42.666;23.392;2022-08-19T05:15:53;12.63;;;11.32;;
3101;SDS011;1561;42.666;23.392;2022-08-19T05:18:26;15.82;;;11.77;;
3101;SDS011;1561;42.666;23.392;2022-08-19T05:21:19;21.63;;;12.07;;
3101;SDS011;1561;42.666;23.392;2022-08-19T05:24:05;15.77;;;10.15;;
3101;SDS011;1561;42.666;23.392;2022-08-19T05:26:34;17.45;;;12.25;;
3101;SDS011;1561;42.666;23.392;2022-08-19T05:29:04;15.60;;;11.40;;
3101;SDS011;1561;42.666;23.392;2022-08-19T05:31:36;13.05;;;11.82;;
3101;SDS011;1561;42.666;23.392;2022-08-19T05:34:09;13.52;;;11.02;;
3101;SDS011;1561;42.666;23.392;2022-08-19T05:36:41;14.10;;;11.18;;
3101;SDS011;1561;42.666;23.392;2022-08-19T05:39:10;17.33;;;11.07;;
3101;SDS011;1561;42.666;23.392;2022-08-19T05:41:41;12.48;;;11.20;;
3101;SDS011;1561;42.666;23.392;2022-08-19T05:44:08;12.20;;;10.75;;
3101;SDS011;1561;42.666;23.392;2022-08-19T05:46:39;11.18;;;10.25;;
3101;SDS011;1561;42.666;23.392;2022-08-19T05:49:14;10.27;;;9.48;;
3101;SDS011;1561;42.666;23.392;2022-08-19T05:51:43;14.85;;;11.48;;
3101;SDS011;1561;42.666;23.392;2022-08-19T05:54:11;13.40;;;11.75;;
3101;SDS011;1561;42.666;23.392;2022-08-19T05:56:42;12.65;;;11.45;;
3101;SDS011;1561;42.666;23.392;2022-08-19T05:59:12;12.23;;;11.02;;
3101;SDS011;1561;42.666;23.392;2022-08-19T06:01:42;12.45;;;11.15;;
3101;SDS011;1561;42.666;23.392;2022-08-19T06:04:21;19.00;;;11.80;;
3101;SDS011;1561;42.666;23.392;2022-08-19T06:06:50;12.52;;;11.18;;
3101;SDS011;1561;42.666;23.392;2022-08-19T06:09:19;16.48;;;12.80;;
3101;SDS011;1561;42.666;23.392;2022-08-19T06:12:00;13.90;;;12.18;;
3101;SDS011;1561;42.666;23.392;2022-08-19T06:14:30;14.82;;;11.27;;
3101;SDS011;1561;42.666;23.392;2022-08-19T06:17:01;15.10;;;10.25;;
3101;SDS011;1561;42.666;23.392;2022-08-19T06:19:39;13.38;;;11.65;;
3101;SDS011;1561;42.666;23.392;2022-08-19T06:22:08;13.77;;;10.60;;
3101;SDS011;1561;42.666;23.392;2022-08-19T06:24:42;12.25;;;10.98;;
3101;SDS011;1561;42.666;23.392;2022-08-19T06:27:10;16.95;;;11.60;;
3101;SDS011;1561;42.666;23.392;2022-08-19T06:29:37;17.75;;;12.98;;
3101;SDS011;1561;42.666;23.392;2022-08-19T06:32:07;13.80;;;11.48;;
3101;SDS011;1561;42.666;23.392;2022-08-19T06:34:41;19.35;;;11.10;;
3101;SDS011;1561;42.666;23.392;2022-08-19T06:37:09;11.93;;;10.82;;
3101;SDS011;1561;42.666;23.392;2022-08-19T06:39:40;12.50;;;11.18;;
3101;SDS011;1561;42.666;23.392;2022-08-19T06:42:23;12.65;;;10.57;;
3101;SDS011;1561;42.666;23.392;2022-08-19T06:44:51;15.73;;;10.38;;
3101;SDS011;1561;42.666;23.392;2022-08-19T06:47:19;15.82;;;9.65;;
3101;SDS011;1561;42.666;23.392;2022-08-19T06:49:55;11.82;;;10.73;;
3101;SDS011;1561;42.666;23.392;2022-08-19T06:52:27;11.73;;;10.50;;
3101;SDS011;1561;42.666;23.392;2022-08-19T06:54:55;14.45;;;10.60;;
3101;SDS011;1561;42.666;23.392;2022-08-19T06:57:24;14.52;;;11.55;;
3101;SDS011;1561;42.666;23.392;2022-08-19T06:59:52;10.75;;;9.75;;
3101;SDS011;1561;42.666;23.392;2022-08-19T07:02:21;12.18;;;10.30;;
3101;SDS011;1561;42.666;23.392;2022-08-19T07:04:53;11.23;;;9.30;;
3101;SDS011;1561;42.666;23.392;2022-08-19T07:07:23;14.15;;;9.88;;
3101;SDS011;1561;42.666;23.392;2022-08-19T07:09:51;11.55;;;10.48;;
3101;SDS011;1561;42.666;23.392;2022-08-19T07:12:19;9.98;;;9.07;;
3101;SDS011;1561;42.666;23.392;2022-08-19T07:14:45;11.70;;;10.57;;
3101;SDS011;1561;42.666;23.392;2022-08-19T07:17:13;11.85;;;9.90;;
3101;SDS011;1561;42.666;23.392;2022-08-19T07:19:41;11.48;;;9.98;;
3101;SDS011;1561;42.666;23.392;2022-08-19T07:22:13;13.73;;;10.38;;
3101;SDS011;1561;42.666;23.392;2022-08-19T07:24:43;12.57;;;10.18;;
3101;SDS011;1561;42.666;23.392;2022-08-19T07:27:10;14.32;;;10.10;;
3101;SDS011;1561;42.666;23.392;2022-08-19T07:29:42;10.40;;;9.50;;
3101;SDS011;1561;42.666;23.392;2022-08-19T07:32:10;10.20;;;8.93;;
3101;SDS011;1561;42.666;23.392;2022-08-19T07:34:37;15.00;;;9.75;;
3101;SDS011;1561;42.666;23.392;2022-08-19T07:37:06;11.73;;;9.50;;
3101;SDS011;1561;42.666;23.392;2022-08-19T07:39:35;10.95;;;8.68;;
3101;SDS011;1561;42.666;23.392;2022-08-19T07:42:05;9.25;;;8.32;;
3101;SDS011;1561;42.666;23.392;2022-08-19T07:44:35;10.52;;;9.73;;
3101;SDS011;1561;42.666;23.392;2022-08-19T07:47:04;9.55;;;8.85;;
3101;SDS011;1561;42.666;23.392;2022-08-19T07:49:32;9.52;;;8.68;;
3101;SDS011;1561;42.666;23.392;2022-08-19T07:52:02;12.82;;;9.57;;
3101;SDS011;1561;42.666;23.392;2022-08-19T07:54:33;13.02;;;10.00;;
3101;SDS011;1561;42.666;23.392;2022-08-19T07:57:04;9.98;;;9.18;;
3101;SDS011;1561;42.666;23.392;2022-08-19T07:59:33;10.10;;;9.07;;
3101;SDS011;1561;42.666;23.392;2022-08-19T08:02:01;10.43;;;9.45;;
3101;SDS011;1561;42.666;23.392;2022-08-19T08:04:31;9.40;;;8.40;;
3101;SDS011;1561;42.666;23.392;2022-08-19T08:07:16;9.73;;;8.85;;
3101;SDS011;1561;42.666;23.392;2022-08-19T08:10:05;13.05;;;9.80;;
3101;SDS011;1561;42.666;23.392;2022-08-19T08:12:36;10.73;;;9.57;;
3101;SDS011;1561;42.666;23.392;2022-08-19T08:15:08;9.65;;;8.73;;
3101;SDS011;1561;42.666;23.392;2022-08-19T08:17:43;9.63;;;8.73;;
3101;SDS011;1561;42.666;23.392;2022-08-19T08:20:31;10.85;;;9.43;;
3101;SDS011;1561;42.666;23.392;2022-08-19T08:22:59;10.05;;;9.25;;
3101;SDS011;1561;42.666;23.392;2022-08-19T08:25:45;10.30;;;8.68;;
3101;SDS011;1561;42.666;23.392;2022-08-19T08:28:15;8.73;;;7.90;;
3101;SDS011;1561;42.666;23.392;2022-08-19T08:30:44;14.38;;;8.80;;
3101;SDS011;1561;42.666;23.392;2022-08-19T08:33:14;10.80;;;9.75;;
3101;SDS011;1561;42.666;23.392;2022-08-19T08:35:48;10.43;;;9.32;;
3101;SDS011;1561;42.666;23.392;2022-08-19T08:38:18;11.57;;;10.32;;
3101;SDS011;1561;42.666;23.392;2022-08-19T08:41:03;10.18;;;8.95;;
3101;SDS011;1561;42.666;23.392;2022-08-19T08:43:45;9.70;;;8.70;;
3101;SDS011;1561;42.666;23.392;2022-08-19T08:46:17;13.07;;;9.63;;
3101;SDS011;1561;42.666;23.392;2022-08-19T08:48:52;9.50;;;8.60;;
3101;SDS011;1561;42.666;23.392;2022-08-19T08:51:27;12.82;;;8.43;;
3101;SDS011;1561;42.666;23.392;2022-08-19T08:54:01;11.98;;;7.78;;
3101;SDS011;1561;42.666;23.392;2022-08-19T08:56:40;8.63;;;7.80;;
3101;SDS011;1561;42.666;23.392;2022-08-19T08:59:23;9.20;;;8.45;;
3101;SDS011;1561;42.666;23.392;2022-08-19T09:01:59;10.25;;;8.23;;
3101;SDS011;1561;42.666;23.392;2022-08-19T09:04:26;8.52;;;7.50;;
3101;SDS011;1561;42.666;23.392;2022-08-19T09:07:04;8.38;;;7.55;;
3101;SDS011;1561;42.666;23.392;2022-08-19T09:09:48;8.25;;;7.60;;
3101;SDS011;1561;42.666;23.392;2022-08-19T09:12:23;7.70;;;7.10;;
3101;SDS011;1561;42.666;23.392;2022-08-19T09:15:04;8.38;;;7.22;;
3101;SDS011;1561;42.666;23.392;2022-08-19T09:17:35;13.52;;;6.85;;
3101;SDS011;1561;42.666;23.392;2022-08-19T09:20:04;9.18;;;6.90;;
3101;SDS011;1561;42.666;23.392;2022-08-19T09:22:33;6.22;;;5.80;;
3101;SDS011;1561;42.666;23.392;2022-08-19T09:25:04;6.35;;;5.82;;
3101;SDS011;1561;42.666;23.392;2022-08-19T09:27:33;6.78;;;6.20;;
3101;SDS011;1561;42.666;23.392;2022-08-19T09:30:03;6.88;;;6.30;;
3101;SDS011;1561;42.666;23.392;2022-08-19T09:32:31;6.28;;;5.78;;
3101;SDS011;1561;42.666;23.392;2022-08-19T09:35:07;6.80;;;6.20;;
3101;SDS011;1561;42.666;23.392;2022-08-19T09:37:39;6.32;;;5.82;;
3101;SDS011;1561;42.666;23.392;2022-08-19T09:40:08;5.05;;;4.70;;
3101;SDS011;1561;42.666;23.392;2022-08-19T09:42:39;5.18;;;4.78;;
3101;SDS011;1561;42.666;23.392;2022-08-19T09:45:12;5.38;;;4.90;;
3101;SDS011;1561;42.666;23.392;2022-08-19T09:47:43;5.15;;;4.70;;
3101;SDS011;1561;42.666;23.392;2022-08-19T09:50:11;5.68;;;5.22;;
3101;SDS011;1561;42.666;23.392;2022-08-19T09:52:40;6.28;;;5.57;;
3101;SDS011;1561;42.666;23.392;2022-08-19T09:55:15;5.97;;;5.47;;
3101;SDS011;1561;42.666;23.392;2022-08-19T09:57:44;5.35;;;4.97;;
3101;SDS011;1561;42.666;23.392;2022-08-19T10:00:14;5.03;;;4.60;;
3101;SDS011;1561;42.666;23.392;2022-08-19T10:02:43;5.07;;;4.72;;
3101;SDS011;1561;42.666;23.392;2022-08-19T10:05:10;6.00;;;5.60;;
3101;SDS011;1561;42.666;23.392;2022-08-19T10:07:56;5.68;;;5.25;;
3101;SDS011;1561;42.666;23.392;2022-08-19T10:10:34;5.55;;;5.05;;
3101;SDS011;1561;42.666;23.392;2022-08-19T10:13:07;7.13;;;5.00;;
3101;SDS011;1561;42.666;23.392;2022-08-19T10:15:36;6.95;;;6.38;;
3101;SDS011;1561;42.666;23.392;2022-08-19T10:18:04;6.00;;;5.50;;
3101;SDS011;1561;42.666;23.392;2022-08-19T10:20:32;6.85;;;6.35;;
3101;SDS011;1561;42.666;23.392;2022-08-19T10:23:02;7.65;;;7.00;;
3101;SDS011;1561;42.666;23.392;2022-08-19T10:25:32;6.38;;;5.80;;
3101;SDS011;1561;42.666;23.392;2022-08-19T10:28:01;5.82;;;5.53;;
3101;SDS011;1561;42.666;23.392;2022-08-19T10:30:30;6.22;;;5.68;;
3101;SDS011;1561;42.666;23.392;2022-08-19T10:32:57;6.78;;;6.18;;
3101;SDS011;1561;42.666;23.392;2022-08-19T10:35:25;6.55;;;6.15;;
3101;SDS011;1561;42.666;23.392;2022-08-19T10:37:53;6.32;;;5.82;;
3101;SDS011;1561;42.666;23.392;2022-08-19T10:40:24;6.72;;;6.22;;
3101;SDS011;1561;42.666;23.392;2022-08-19T10:42:56;8.20;;;7.63;;
3101;SDS011;1561;42.666;23.392;2022-08-19T10:45:26;6.85;;;6.45;;
3101;SDS011;1561;42.666;23.392;2022-08-19T10:47:57;6.22;;;5.82;;
3101;SDS011;1561;42.666;23.392;2022-08-19T10:50:24;6.50;;;6.00;;
3101;SDS011;1561;42.666;23.392;2022-08-19T10:53:12;6.60;;;6.05;;
3101;SDS011;1561;42.666;23.392;2022-08-19T10:55:38;6.68;;;6.25;;
3101;SDS011;1561;42.666;23.392;2022-08-19T10:58:24;7.47;;;6.78;;
3101;SDS011;1561;42.666;23.392;2022-08-19T11:00:58;8.90;;;8.07;;
3101;SDS011;1561;42.666;23.392;2022-08-19T11:03:32;7.15;;;6.63;;
3101;SDS011;1561;42.666;23.392;2022-08-19T11:06:08;6.90;;;6.45;;
3101;SDS011;1561;42.666;23.392;2022-08-19T11:08:38;6.90;;;6.40;;
3101;SDS011;1561;42.666;23.392;2022-08-19T11:11:11;6.95;;;6.30;;
3101;SDS011;1561;42.666;23.392;2022-08-19T11:13:39;6.70;;;6.30;;
3101;SDS011;1561;42.666;23.392;2022-08-19T11:16:09;10.82;;;9.52;;
3101;SDS011;1561;42.666;23.392;2022-08-19T11:18:43;7.45;;;6.85;;
3101;SDS011;1561;42.666;23.392;2022-08-19T11:21:12;8.43;;;7.63;;
3101;SDS011;1561;42.666;23.392;2022-08-19T11:23:44;22.27;;;16.90;;
3101;SDS011;1561;42.666;23.392;2022-08-19T11:26:17;6.80;;;6.18;;
3101;SDS011;1561;42.666;23.392;2022-08-19T11:28:47;7.13;;;6.60;;
3101;SDS011;1561;42.666;23.392;2022-08-19T11:31:21;7.65;;;6.85;;
3101;SDS011;1561;42.666;23.392;2022-08-19T11:33:55;7.53;;;6.85;;
3101;SDS011;1561;42.666;23.392;2022-08-19T11:36:24;6.90;;;6.40;;
3101;SDS011;1561;42.666;23.392;2022-08-19T11:38:53;7.53;;;6.90;;
3101;SDS011;1561;42.666;23.392;2022-08-19T11:41:22;6.57;;;6.07;;
3101;SDS011;1561;42.666;23.392;2022-08-19T11:43:52;7.43;;;6.82;;
3101;SDS011;1561;42.666;23.392;2022-08-19T11:46:22;7.57;;;6.85;;
3101;SDS011;1561;42.666;23.392;2022-08-19T11:49:05;7.72;;;7.03;;
3101;SDS011;1561;42.666;23.392;2022-08-19T11:51:37;11.55;;;7.25;;
3101;SDS011;1561;42.666;23.392;2022-08-19T11:54:08;7.78;;;7.18;;
3101;SDS011;1561;42.666;23.392;2022-08-19T11:56:36;7.28;;;6.72;;
3101;SDS011;1561;42.666;23.392;2022-08-19T11:59:05;8.10;;;7.05;;
3101;SDS011;1561;42.666;23.392;2022-08-19T12:01:34;7.45;;;6.95;;
3101;SDS011;1561;42.666;23.392;2022-08-19T12:04:03;7.80;;;6.57;;
3101;SDS011;1561;42.666;23.392;2022-08-19T12:06:31;7.32;;;6.88;;
3101;SDS011;1561;42.666;23.392;2022-08-19T12:09:06;7.47;;;6.90;;
3101;SDS011;1561;42.666;23.392;2022-08-19T12:11:34;7.97;;;6.90;;
3101;SDS011;1561;42.666;23.392;2022-08-19T12:14:03;8.48;;;7.72;;
3101;SDS011;1561;42.666;23.392;2022-08-19T12:16:36;7.25;;;6.75;;
3101;SDS011;1561;42.666;23.392;2022-08-19T12:19:11;7.30;;;6.60;;
3101;SDS011;1561;42.666;23.392;2022-08-19T12:21:40;7.10;;;6.60;;
3101;SDS011;1561;42.666;23.392;2022-08-19T12:24:08;8.07;;;7.22;;
3101;SDS011;1561;42.666;23.392;2022-08-19T12:26:37;8.40;;;7.55;;
3101;SDS011;1561;42.666;23.392;2022-08-19T12:29:05;8.30;;;7.57;;
3101;SDS011;1561;42.666;23.392;2022-08-19T12:31:33;8.30;;;7.70;;
3101;SDS011;1561;42.666;23.392;2022-08-19T12:34:00;7.95;;;7.35;;
3101;SDS011;1561;42.666;23.392;2022-08-19T12:36:29;7.95;;;7.43;;
3101;SDS011;1561;42.666;23.392;2022-08-19T12:38:58;7.63;;;6.88;;
3101;SDS011;1561;42.666;23.392;2022-08-19T12:41:36;8.20;;;7.47;;
3101;SDS011;1561;42.666;23.392;2022-08-19T12:44:06;8.18;;;7.53;;
3101;SDS011;1561;42.666;23.392;2022-08-19T12:46:37;7.80;;;7.28;;
3101;SDS011;1561;42.666;23.392;2022-08-19T12:49:08;8.43;;;7.82;;
3101;SDS011;1561;42.666;23.392;2022-08-19T12:51:38;7.68;;;6.90;;
3101;SDS011;1561;42.666;23.392;2022-08-19T12:54:05;7.82;;;7.22;;
3101;SDS011;1561;42.666;23.392;2022-08-19T12:56:45;8.43;;;7.72;;
3101;SDS011;1561;42.666;23.392;2022-08-19T12:59:17;8.75;;;8.05;;
3101;SDS011;1561;42.666;23.392;2022-08-19T13:01:47;12.15;;;7.72;;
3101;SDS011;1561;42.666;23.392;2022-08-19T13:04:15;8.57;;;7.97;;
3101;SDS011;1561;42.666;23.392;2022-08-19T13:06:44;12.00;;;7.50;;
3101;SDS011;1561;42.666;23.392;2022-08-19T13:09:12;12.60;;;7.53;;
3101;SDS011;1561;42.666;23.392;2022-08-19T13:11:43;7.85;;;7.35;;
3101;SDS011;1561;42.666;23.392;2022-08-19T13:14:15;8.07;;;7.47;;
3101;SDS011;1561;42.666;23.392;2022-08-19T13:16:45;8.63;;;7.93;;
3101;SDS011;1561;42.666;23.392;2022-08-19T13:19:15;8.50;;;7.82;;
3101;SDS011;1561;42.666;23.392;2022-08-19T13:21:48;8.35;;;7.55;;
3101;SDS011;1561;42.666;23.392;2022-08-19T13:24:16;9.82;;;8.93;;
3101;SDS011;1561;42.666;23.392;2022-08-19T13:26:43;11.25;;;8.20;;
3101;SDS011;1561;42.666;23.392;2022-08-19T13:29:12;11.98;;;10.98;;
3101;SDS011;1561;42.666;23.392;2022-08-19T13:31:57;10.75;;;9.88;;
3101;SDS011;1561;42.666;23.392;2022-08-19T13:34:44;9.30;;;8.43;;
3101;SDS011;1561;42.666;23.392;2022-08-19T13:37:19;18.48;;;17.08;;
3101;SDS011;1561;42.666;23.392;2022-08-19T13:40:06;9.27;;;8.52;;
3101;SDS011;1561;42.666;23.392;2022-08-19T13:42:39;8.63;;;7.20;;
3101;SDS011;1561;42.666;23.392;2022-08-19T13:45:07;9.18;;;8.57;;
3101;SDS011;1561;42.666;23.392;2022-08-19T13:47:35;8.45;;;7.88;;
3101;SDS011;1561;42.666;23.392;2022-08-19T13:50:08;8.43;;;7.63;;
3101;SDS011;1561;42.666;23.392;2022-08-19T13:52:42;7.80;;;7.20;;
3101;SDS011;1561;42.666;23.392;2022-08-19T13:55:10;8.88;;;8.07;;
3101;SDS011;1561;42.666;23.392;2022-08-19T13:57:38;8.85;;;7.68;;
3101;SDS011;1561;42.666;23.392;2022-08-19T14:00:14;7.95;;;7.32;;
3101;SDS011;1561;42.666;23.392;2022-08-19T14:02:44;8.60;;;7.90;;
3101;SDS011;1561;42.666;23.392;2022-08-19T14:05:18;7.80;;;7.30;;
3101;SDS011;1561;42.666;23.392;2022-08-19T14:07:51;9.05;;;8.35;;
3101;SDS011;1561;42.666;23.392;2022-08-19T14:10:19;8.38;;;7.55;;
3101;SDS011;1561;42.666;23.392;2022-08-19T14:12:47;8.20;;;7.50;;
3101;SDS011;1561;42.666;23.392;2022-08-19T14:15:19;7.72;;;7.22;;
3101;SDS011;1561;42.666;23.392;2022-08-19T14:17:50;9.82;;;7.97;;
3101;SDS011;1561;42.666;23.392;2022-08-19T14:20:19;8.73;;;8.07;;
3101;SDS011;1561;42.666;23.392;2022-08-19T14:22:47;9.85;;;7.70;;
3101;SDS011;1561;42.666;23.392;2022-08-19T14:25:26;8.68;;;7.80;;
3101;SDS011;1561;42.666;23.392;2022-08-19T14:28:06;8.88;;;8.27;;
3101;SDS011;1561;42.666;23.392;2022-08-19T14:30:36;9.05;;;8.10;;
3101;SDS011;1561;42.666;23.392;2022-08-19T14:33:04;8.45;;;7.50;;
3101;SDS011;1561;42.666;23.392;2022-08-19T14:35:32;7.55;;;6.95;;
3101;SDS011;1561;42.666;23.392;2022-08-19T14:38:14;10.82;;;9.13;;
3101;SDS011;1561;42.666;23.392;2022-08-19T14:40:44;7.80;;;7.20;;
3101;SDS011;1561;42.666;23.392;2022-08-19T14:43:11;8.25;;;7.60;;
3101;SDS011;1561;42.666;23.392;2022-08-19T14:45:40;13.10;;;11.90;;
3101;SDS011;1561;42.666;23.392;2022-08-19T14:48:08;7.95;;;7.35;;
3101;SDS011;1561;42.666;23.392;2022-08-19T14:50:37;8.30;;;7.57;;
3101;SDS011;1561;42.666;23.392;2022-08-19T14:53:10;9.40;;;8.30;;
3101;SDS011;1561;42.666;23.392;2022-08-19T14:55:45;8.20;;;7.45;;
3101;SDS011;1561;42.666;23.392;2022-08-19T14:58:16;9.52;;;8.02;;
3101;SDS011;1561;42.666;23.392;2022-08-19T15:00:49;8.25;;;7.43;;
3101;SDS011;1561;42.666;23.392;2022-08-19T15:03:18;7.97;;;7.38;;
3101;SDS011;1561;42.666;23.392;2022-08-19T15:05:46;9.13;;;8.05;;
3101;SDS011;1561;42.666;23.392;2022-08-19T15:08:16;9.23;;;8.07;;
3101;SDS011;1561;42.666;23.392;2022-08-19T15:10:49;7.47;;;6.80;;
3101;SDS011;1561;42.666;23.392;2022-08-19T15:13:16;8.52;;;7.63;;
3101;SDS011;1561;42.666;23.392;2022-08-19T15:15:45;12.60;;;7.65;;